Time;durP1;ratioP1;P1;durP2;ratioP2;P2;SDS_P1;SDS_P2;PMS_P1;PMS_P2;Temp;Humidity;BMP_temperature;BMP_pressure;BME280_temperature;BME280_humidity;BME280_pressure;Samples;Min_cycle;Max_cycle;Signal;HPM_P1;HPM_P2
2022/07/14 00:01:55;;;;;;;5.20;4.60;;;;;;;;;;5006340;28;20431;-93
2022/07/14 00:04:21;;;;;;;6.47;5.07;;;;;;;;;;5011649;28;20476;-95
2022/07/14 00:06:50;;;;;;;6.03;5.43;;;;;;;;;;4994874;28;20510;-95
2022/07/14 00:09:16;;;;;;;4.97;4.57;;;;;;;;;;4975615;28;20436;-94
2022/07/14 00:11:42;;;;;;;8.13;5.03;;;;;;;;;;4962407;28;20457;-94
2022/07/14 00:14:08;;;;;;;6.10;5.10;;;;;;;;;;4979845;28;20457;-95
2022/07/14 00:16:34;;;;;;;5.70;5.23;;;;;;;;;;5019260;28;20412;-94
2022/07/14 00:19:00;;;;;;;5.90;5.47;;;;;;;;;;4999169;28;20484;-95
2022/07/14 00:21:26;;;;;;;4.47;4.17;;;;;;;;;;5015432;28;21005;-95
2022/07/14 00:23:52;;;;;;;4.87;4.63;;;;;;;;;;5004215;28;20428;-96
2022/07/14 00:26:18;;;;;;;11.23;5.23;;;;;;;;;;5118788;23;20506;-96
2022/07/14 00:46:55;;;;;;;4.80;4.50;;;;;;;;;;5222297;22;20479;-94
2022/07/14 01:13:03;;;;;;;6.30;5.80;;;;;;;;;;6005547;22;20490;-95
2022/07/14 01:15:30;;;;;;;8.23;5.60;;;;;;;;;;5103802;28;20427;-94
2022/07/14 01:23:31;;;;;;;6.10;5.27;;;;;;;;;;5484544;22;20471;-89
2022/07/14 01:25:58;;;;;;;5.90;5.13;;;;;;;;;;5099196;28;20405;-94
2022/07/14 01:28:24;;;;;;;7.77;5.20;;;;;;;;;;5081483;28;20417;-94
2022/07/14 01:30:50;;;;;;;7.97;5.93;;;;;;;;;;5094772;28;20453;-94
2022/07/14 01:33:18;;;;;;;10.17;5.10;;;;;;;;;;5079416;28;20432;-94
2022/07/14 01:35:50;;;;;;;8.83;6.20;;;;;;;;;;5097768;28;20493;-95
2022/07/14 01:38:19;;;;;;;6.23;5.10;;;;;;;;;;5082171;28;20437;-93
2022/07/14 02:01:53;;;;;;;7.83;5.00;;;;;;;;;;5055872;28;20497;-90
2022/07/14 02:04:20;;;;;;;9.33;4.50;;;;;;;;;;5029372;28;20472;-89
2022/07/14 02:06:53;;;;;;;8.63;5.10;;;;;;;;;;5012405;28;20446;-88
2022/07/14 02:09:19;;;;;;;5.13;4.63;;;;;;;;;;5011478;28;20716;-88
2022/07/14 02:14:31;;;;;;;5.27;4.83;;;;;;;;;;5024896;28;20447;-90
2022/07/14 02:16:57;;;;;;;8.53;4.97;;;;;;;;;;5015935;28;20450;-89
2022/07/14 02:19:26;;;;;;;8.07;4.53;;;;;;;;;;5026360;28;20465;-89
2022/07/14 02:21:53;;;;;;;7.73;4.90;;;;;;;;;;5017390;28;20430;-89
2022/07/14 02:24:20;;;;;;;8.97;5.40;;;;;;;;;;5019778;28;20425;-89
2022/07/14 02:26:46;;;;;;;8.00;4.80;;;;;;;;;;5012109;28;20447;-90
2022/07/14 02:29:12;;;;;;;13.57;5.50;;;;;;;;;;5031548;28;20473;-88
2022/07/14 02:31:43;;;;;;;10.47;4.40;;;;;;;;;;5024766;28;20969;-89
2022/07/14 02:34:09;;;;;;;8.90;4.53;;;;;;;;;;5025647;28;20708;-89
2022/07/14 02:36:35;;;;;;;10.03;4.83;;;;;;;;;;5013018;28;20940;-88
2022/07/14 02:39:01;;;;;;;8.00;4.60;;;;;;;;;;5044088;28;20430;-89
2022/07/14 02:41:27;;;;;;;12.60;5.07;;;;;;;;;;5015019;28;20792;-89
2022/07/14 02:43:53;;;;;;;10.73;4.93;;;;;;;;;;5041733;28;20426;-90
2022/07/14 02:46:19;;;;;;;10.83;4.80;;;;;;;;;;5014827;28;20448;-90
2022/07/14 02:48:45;;;;;;;10.97;4.90;;;;;;;;;;5036705;28;20415;-90
2022/07/14 02:51:11;;;;;;;8.57;4.20;;;;;;;;;;5024091;28;20459;-90
2022/07/14 02:53:37;;;;;;;9.70;4.80;;;;;;;;;;5032244;28;20830;-89
2022/07/14 02:56:04;;;;;;;14.20;4.77;;;;;;;;;;5025621;28;20507;-90
2022/07/14 02:58:30;;;;;;;9.80;3.97;;;;;;;;;;5054520;28;20426;-90
2022/07/14 03:00:56;;;;;;;13.37;5.93;;;;;;;;;;5012781;28;20448;-90
2022/07/14 03:03:22;;;;;;;7.27;4.33;;;;;;;;;;5009696;28;20470;-90
2022/07/14 03:05:49;;;;;;;7.03;5.07;;;;;;;;;;5010447;28;20474;-91
2022/07/14 03:08:15;;;;;;;14.57;4.77;;;;;;;;;;5011384;28;20798;-81
2022/07/14 03:10:41;;;;;;;8.80;4.57;;;;;;;;;;5000031;28;20871;-90
2022/07/14 03:13:07;;;;;;;6.43;4.20;;;;;;;;;;4992858;28;20436;-90
2022/07/14 03:15:33;;;;;;;7.00;4.00;;;;;;;;;;5005401;28;20438;-90
2022/07/14 03:18:00;;;;;;;13.47;4.90;;;;;;;;;;4997526;28;20751;-90
2022/07/14 03:20:26;;;;;;;6.33;4.90;;;;;;;;;;5008222;28;21161;-89
2022/07/14 03:22:52;;;;;;;7.67;4.70;;;;;;;;;;4991790;28;20408;-90
2022/07/14 03:25:18;;;;;;;6.80;4.60;;;;;;;;;;5002368;28;20570;-89
2022/07/14 03:27:46;;;;;;;13.50;5.93;;;;;;;;;;5001019;28;20419;-90
2022/07/14 03:30:12;;;;;;;8.60;4.83;;;;;;;;;;5008285;28;20448;-88
2022/07/14 03:32:41;;;;;;;7.53;5.00;;;;;;;;;;5007483;28;20438;-88
2022/07/14 03:35:08;;;;;;;10.37;4.40;;;;;;;;;;5006908;28;20455;-89
2022/07/14 03:37:35;;;;;;;10.40;5.07;;;;;;;;;;5011064;28;20412;-89
2022/07/14 03:40:01;;;;;;;8.47;3.60;;;;;;;;;;4994806;28;21093;-90
2022/07/14 03:42:28;;;;;;;8.23;4.87;;;;;;;;;;5000544;28;20436;-90
2022/07/14 03:44:55;;;;;;;11.00;6.30;;;;;;;;;;5007959;28;20423;-89
2022/07/14 03:47:21;;;;;;;10.67;4.43;;;;;;;;;;4662442;28;9999858;-89
2022/07/14 03:49:47;;;;;;;9.00;4.73;;;;;;;;;;5005900;28;20579;-89
2022/07/14 03:52:13;;;;;;;13.27;4.90;;;;;;;;;;5008083;28;20471;-90
2022/07/14 03:54:39;;;;;;;7.67;4.60;;;;;;;;;;5005926;28;20518;-90
2022/07/14 03:57:05;;;;;;;9.73;5.10;;;;;;;;;;4989664;28;20452;-89
2022/07/14 03:59:31;;;;;;;9.13;5.27;;;;;;;;;;5004505;28;20535;-89
2022/07/14 04:01:57;;;;;;;10.97;4.90;;;;;;;;;;4997084;28;20487;-89
2022/07/14 04:04:23;;;;;;;9.40;4.97;;;;;;;;;;5011031;28;20513;-90
2022/07/14 04:06:49;;;;;;;13.43;5.80;;;;;;;;;;5027357;28;20529;-91
2022/07/14 04:09:15;;;;;;;8.77;4.73;;;;;;;;;;5011525;28;20443;-90
2022/07/14 04:11:41;;;;;;;5.70;4.43;;;;;;;;;;5020553;28;20466;-90
2022/07/14 04:14:07;;;;;;;7.67;4.40;;;;;;;;;;5021495;28;20442;-89
2022/07/14 04:16:33;;;;;;;11.60;4.17;;;;;;;;;;5012583;28;20430;-90
2022/07/14 04:18:59;;;;;;;6.73;4.93;;;;;;;;;;5030467;28;20494;-91
2022/07/14 04:21:25;;;;;;;9.87;4.47;;;;;;;;;;5017337;28;21250;-91
2022/07/14 04:23:51;;;;;;;9.50;4.20;;;;;;;;;;5024094;28;20435;-90
2022/07/14 04:26:17;;;;;;;7.53;4.67;;;;;;;;;;5011903;28;20441;-91
2022/07/14 04:28:43;;;;;;;10.00;4.70;;;;;;;;;;5029046;28;20426;-90
2022/07/14 04:31:09;;;;;;;7.40;4.90;;;;;;;;;;5008624;28;20811;-91
2022/07/14 04:33:35;;;;;;;12.93;4.90;;;;;;;;;;5004380;28;20795;-91
2022/07/14 04:36:02;;;;;;;12.50;4.43;;;;;;;;;;5006078;28;20446;-91
2022/07/14 04:38:30;;;;;;;5.60;3.90;;;;;;;;;;5023976;28;20453;-90
2022/07/14 04:40:56;;;;;;;13.70;4.30;;;;;;;;;;5011046;28;20505;-92
2022/07/14 04:43:22;;;;;;;11.57;4.90;;;;;;;;;;5022202;28;20442;-92
2022/07/14 04:45:48;;;;;;;10.13;4.60;;;;;;;;;;5022663;28;20454;-90
2022/07/14 04:48:14;;;;;;;7.73;4.13;;;;;;;;;;5019383;28;20414;-91
2022/07/14 04:53:25;;;;;;;9.13;3.77;;;;;;;;;;5047466;28;20437;-90
2022/07/14 04:55:51;;;;;;;11.13;5.40;;;;;;;;;;5036584;28;20442;-90
2022/07/14 04:58:20;;;;;;;11.73;4.17;;;;;;;;;;5036157;28;20417;-90
2022/07/14 05:00:46;;;;;;;10.47;4.40;;;;;;;;;;5017211;28;20470;-91
2022/07/14 05:03:12;;;;;;;10.00;3.87;;;;;;;;;;5027174;28;20449;-92
2022/07/14 05:05:38;;;;;;;9.23;4.93;;;;;;;;;;5016094;28;20524;-90
2022/07/14 05:08:04;;;;;;;7.60;5.10;;;;;;;;;;5010798;28;20961;-91
2022/07/14 05:10:30;;;;;;;8.47;4.13;;;;;;;;;;5013606;28;20485;-91
2022/07/14 05:12:56;;;;;;;13.20;4.23;;;;;;;;;;5011866;28;20926;-88
2022/07/14 05:15:22;;;;;;;31.03;5.63;;;;;;;;;;5016084;28;20459;-89
2022/07/14 05:17:48;;;;;;;12.00;4.27;;;;;;;;;;5022010;28;20431;-90
2022/07/14 05:20:14;;;;;;;13.03;5.30;;;;;;;;;;5017371;28;20475;-87
2022/07/14 05:22:41;;;;;;;7.40;3.87;;;;;;;;;;5018747;28;20414;-90
2022/07/14 05:25:11;;;;;;;5.87;3.97;;;;;;;;;;5009234;28;20428;-90
2022/07/14 05:27:37;;;;;;;6.47;4.00;;;;;;;;;;5019749;28;20412;-90
2022/07/14 05:30:10;;;;;;;10.10;3.93;;;;;;;;;;5018202;28;20462;-91
2022/07/14 05:32:36;;;;;;;11.50;3.80;;;;;;;;;;5007349;28;20475;-91
2022/07/14 05:35:03;;;;;;;9.70;3.90;;;;;;;;;;5019816;28;20424;-89
2022/07/14 05:37:50;;;;;;;9.77;4.73;;;;;;;;;;5021217;28;20451;-93
2022/07/14 05:40:18;;;;;;;6.20;3.57;;;;;;;;;;5013950;28;20507;-94
2022/07/14 05:42:55;;;;;;;8.40;3.83;;;;;;;;;;4701285;28;10001448;-94
2022/07/14 05:45:28;;;;;;;8.50;4.83;;;;;;;;;;5009849;28;20381;-93
2022/07/14 05:47:54;;;;;;;12.40;6.07;;;;;;;;;;5026888;28;20428;-93
2022/07/14 05:50:20;;;;;;;4.20;3.70;;;;;;;;;;5008777;28;20565;-90
2022/07/14 05:52:56;;;;;;;8.20;4.80;;;;;;;;;;5032381;28;20442;-93
2022/07/14 05:55:25;;;;;;;7.10;4.10;;;;;;;;;;5030831;28;20435;-92
2022/07/14 05:57:51;;;;;;;5.00;4.20;;;;;;;;;;5032982;28;20531;-89
2022/07/14 06:00:32;;;;;;;11.33;5.00;;;;;;;;;;5025051;28;20539;-93
2022/07/14 06:05:36;;;;;;;15.87;5.33;;;;;;;;;;5245826;23;20485;-87
2022/07/14 06:08:05;;;;;;;7.27;4.10;;;;;;;;;;5090385;28;20433;-89
2022/07/14 06:10:43;;;;;;;9.73;4.30;;;;;;;;;;5075121;28;20458;-93
2022/07/14 06:13:10;;;;;;;11.90;4.17;;;;;;;;;;5092887;28;20441;-92
2022/07/14 06:15:39;;;;;;;9.33;4.93;;;;;;;;;;5093373;28;20485;-93
2022/07/14 06:18:16;;;;;;;10.97;6.10;;;;;;;;;;5072697;28;20405;-93
2022/07/14 06:20:45;;;;;;;15.50;4.47;;;;;;;;;;5064502;28;20421;-93
2022/07/14 06:23:11;;;;;;;7.97;4.10;;;;;;;;;;5090369;28;20437;-86
2022/07/14 06:28:41;;;;;;;9.77;5.00;;;;;;;;;;5063149;22;20505;-93
2022/07/14 06:31:25;;;;;;;5.30;3.80;;;;;;;;;;5031579;28;20469;-94
2022/07/14 06:34:18;;;;;;;12.13;4.90;;;;;;;;;;5029939;28;21114;-94
2022/07/14 06:36:51;;;;;;;8.63;3.57;;;;;;;;;;5093755;23;20481;-91
2022/07/14 06:39:22;;;;;;;10.07;4.37;;;;;;;;;;5027153;28;20423;-95
2022/07/14 06:42:06;;;;;;;11.00;5.57;;;;;;;;;;5044425;28;20442;-94
2022/07/14 06:44:32;;;;;;;7.70;3.67;;;;;;;;;;5037233;28;20986;-91
2022/07/14 06:47:21;;;;;;;16.03;4.30;;;;;;;;;;5028981;28;20488;-92
2022/07/14 06:49:47;;;;;;;7.43;3.57;;;;;;;;;;5024632;28;20426;-90
2022/07/14 06:52:13;;;;;;;7.90;3.70;;;;;;;;;;5035481;28;20686;-89
2022/07/14 06:54:42;;;;;;;8.27;4.03;;;;;;;;;;5037779;28;20429;-88
2022/07/14 06:57:08;;;;;;;11.90;4.87;;;;;;;;;;5035220;28;20939;-91
2022/07/14 06:59:34;;;;;;;6.57;3.50;;;;;;;;;;5035911;28;20430;-91
2022/07/14 07:02:00;;;;;;;7.33;3.43;;;;;;;;;;5028333;28;20440;-89
2022/07/14 07:04:30;;;;;;;6.00;3.63;;;;;;;;;;5050074;28;20446;-91
2022/07/14 07:06:57;;;;;;;10.07;3.13;;;;;;;;;;5027797;28;20481;-89
2022/07/14 07:09:23;;;;;;;8.37;3.87;;;;;;;;;;5063237;28;20409;-91
2022/07/14 07:12:08;;;;;;;14.80;4.70;;;;;;;;;;5041358;28;20481;-90
2022/07/14 07:14:51;;;;;;;7.07;4.67;;;;;;;;;;5032150;28;20441;-92
2022/07/14 07:17:27;;;;;;;6.27;4.07;;;;;;;;;;5037013;28;20453;-92
2022/07/14 07:23:03;;;;;;;6.33;5.00;;;;;;;;;;5019425;28;20444;-91
2022/07/14 07:25:29;;;;;;;6.57;4.57;;;;;;;;;;5045766;28;20588;-92
2022/07/14 07:27:59;;;;;;;6.77;4.60;;;;;;;;;;5053074;28;20418;-91
2022/07/14 07:30:25;;;;;;;8.50;5.20;;;;;;;;;;5126216;23;20489;-90
2022/07/14 07:32:52;;;;;;;6.57;5.23;;;;;;;;;;5016619;28;20461;-90
2022/07/14 07:35:19;;;;;;;8.87;6.93;;;;;;;;;;5039903;28;20442;-85
2022/07/14 07:37:45;;;;;;;11.83;5.53;;;;;;;;;;5047994;28;20502;-89
2022/07/14 07:40:12;;;;;;;15.07;6.70;;;;;;;;;;4693589;28;10000378;-89
2022/07/14 07:42:38;;;;;;;6.93;5.10;;;;;;;;;;5057056;28;20199;-89
2022/07/14 07:45:04;;;;;;;7.90;5.10;;;;;;;;;;5037437;28;20444;-87
2022/07/14 07:47:31;;;;;;;11.73;5.43;;;;;;;;;;5029079;28;20426;-87
2022/07/14 07:49:59;;;;;;;6.47;4.90;;;;;;;;;;5015792;28;20433;-87
2022/07/14 07:52:31;;;;;;;6.97;4.33;;;;;;;;;;5034848;28;20938;-88
2022/07/14 07:54:57;;;;;;;9.30;5.40;;;;;;;;;;5036052;28;20561;-88
2022/07/14 07:57:23;;;;;;;5.07;4.13;;;;;;;;;;5034953;28;20541;-87
2022/07/14 07:59:49;;;;;;;9.07;4.33;;;;;;;;;;5042411;28;21274;-88
2022/07/14 08:02:16;;;;;;;5.93;4.00;;;;;;;;;;5035329;28;20445;-90
2022/07/14 08:04:42;;;;;;;7.17;4.20;;;;;;;;;;5042283;28;20450;-89
2022/07/14 08:07:08;;;;;;;7.47;5.50;;;;;;;;;;5037365;28;20434;-90
2022/07/14 08:09:34;;;;;;;9.20;4.70;;;;;;;;;;5048972;28;20779;-90
2022/07/14 08:12:00;;;;;;;7.03;4.60;;;;;;;;;;5031778;28;21064;-90
2022/07/14 08:17:11;;;;;;;5.97;4.57;;;;;;;;;;5033956;28;20437;-87
2022/07/14 08:19:37;;;;;;;4.27;3.73;;;;;;;;;;5046766;28;20430;-89
2022/07/14 08:22:06;;;;;;;6.80;4.83;;;;;;;;;;5029569;28;20452;-90
2022/07/14 08:24:35;;;;;;;4.60;4.20;;;;;;;;;;5030538;28;20448;-91
2022/07/14 08:27:01;;;;;;;7.83;4.20;;;;;;;;;;5059417;28;20445;-89
2022/07/14 08:29:27;;;;;;;7.30;4.87;;;;;;;;;;5038664;28;20479;-89
2022/07/14 08:31:53;;;;;;;7.50;4.03;;;;;;;;;;5021552;28;20486;-88
2022/07/14 08:34:19;;;;;;;5.43;4.33;;;;;;;;;;5041077;28;20433;-89
2022/07/14 08:36:46;;;;;;;11.63;5.07;;;;;;;;;;5041171;28;20520;-91
2022/07/14 08:39:12;;;;;;;4.80;4.27;;;;;;;;;;5045542;28;21024;-89
2022/07/14 08:41:38;;;;;;;6.17;4.30;;;;;;;;;;5030293;28;20438;-89
2022/07/14 08:44:05;;;;;;;10.20;4.67;;;;;;;;;;5050163;28;20437;-88
2022/07/14 08:46:32;;;;;;;19.43;5.07;;;;;;;;;;5034765;28;20438;-90
2022/07/14 08:48:59;;;;;;;4.50;3.70;;;;;;;;;;5033336;28;20461;-89
2022/07/14 08:51:25;;;;;;;8.43;3.73;;;;;;;;;;5042984;28;20480;-90
2022/07/14 08:53:51;;;;;;;4.43;4.07;;;;;;;;;;5038254;28;20787;-91
2022/07/14 08:56:21;;;;;;;10.80;4.20;;;;;;;;;;5051185;28;20449;-88
2022/07/14 08:58:47;;;;;;;4.60;3.60;;;;;;;;;;5040118;28;20426;-90
2022/07/14 09:01:13;;;;;;;7.03;3.03;;;;;;;;;;5045117;28;20524;-91
2022/07/14 09:03:39;;;;;;;3.17;2.90;;;;;;;;;;5022210;28;20442;-90
2022/07/14 09:06:15;;;;;;;4.10;2.83;;;;;;;;;;5049495;28;21001;-89
2022/07/14 09:08:57;;;;;;;2.87;2.50;;;;;;;;;;5031514;28;20425;-90
2022/07/14 09:11:25;;;;;;;2.03;1.80;;;;;;;;;;5024898;28;20500;-89
2022/07/14 09:13:51;;;;;;;1.70;1.50;;;;;;;;;;5064395;28;20460;-91
2022/07/14 09:16:19;;;;;;;3.83;2.20;;;;;;;;;;5055448;28;20448;-91
2022/07/14 09:19:02;;;;;;;2.13;1.97;;;;;;;;;;5047995;28;20523;-91
2022/07/14 09:21:31;;;;;;;2.70;2.17;;;;;;;;;;5029837;28;20510;-91
2022/07/14 09:23:58;;;;;;;3.63;2.17;;;;;;;;;;5039389;28;20449;-90
2022/07/14 09:26:24;;;;;;;3.33;1.80;;;;;;;;;;5040760;28;20463;-89
2022/07/14 09:28:51;;;;;;;1.20;1.13;;;;;;;;;;5060073;28;20417;-88
2022/07/14 09:31:23;;;;;;;1.50;1.40;;;;;;;;;;5035532;28;20544;-92
2022/07/14 09:33:50;;;;;;;2.10;1.90;;;;;;;;;;5041092;28;20410;-90
2022/07/14 09:36:20;;;;;;;1.43;1.33;;;;;;;;;;5032090;28;20444;-89
2022/07/14 09:38:49;;;;;;;3.70;1.63;;;;;;;;;;5053502;28;20438;-89
2022/07/14 09:41:15;;;;;;;1.40;1.40;;;;;;;;;;5034230;28;20431;-87
2022/07/14 09:44:01;;;;;;;2.70;1.80;;;;;;;;;;5028175;28;20486;-87
2022/07/14 09:46:44;;;;;;;2.53;1.57;;;;;;;;;;5036999;28;20448;-91
2022/07/14 09:49:10;;;;;;;3.17;1.87;;;;;;;;;;5036015;28;20478;-87
2022/07/14 09:51:54;;;;;;;1.80;1.70;;;;;;;;;;5032534;28;20482;-90
2022/07/14 09:54:39;;;;;;;2.43;2.23;;;;;;;;;;5030597;28;20526;-89
2022/07/14 09:57:08;;;;;;;3.70;2.00;;;;;;;;;;5042965;28;20476;-90
2022/07/14 09:59:48;;;;;;;4.20;2.10;;;;;;;;;;5046073;28;20455;-89
2022/07/14 10:02:32;;;;;;;3.30;1.90;;;;;;;;;;5038477;28;20455;-89
2022/07/14 10:05:01;;;;;;;1.73;1.63;;;;;;;;;;5048584;28;20504;-90
2022/07/14 10:07:29;;;;;;;3.50;1.50;;;;;;;;;;5060558;28;20457;-91
2022/07/14 10:10:12;;;;;;;2.17;1.97;;;;;;;;;;5025496;28;20514;-90
2022/07/14 10:12:46;;;;;;;3.10;2.27;;;;;;;;;;5040886;28;20458;-89
2022/07/14 10:15:13;;;;;;;3.73;1.77;;;;;;;;;;5038918;28;20410;-91
2022/07/14 10:17:40;;;;;;;3.13;1.87;;;;;;;;;;5036474;28;20451;-91
2022/07/14 10:20:08;;;;;;;2.07;1.60;;;;;;;;;;5050060;28;20420;-89
2022/07/14 10:22:35;;;;;;;4.60;2.20;;;;;;;;;;5056936;28;20435;-91
2022/07/14 10:25:02;;;;;;;3.70;2.10;;;;;;;;;;5035943;28;20439;-89
2022/07/14 10:27:31;;;;;;;3.20;1.90;;;;;;;;;;5046150;28;20496;-91
2022/07/14 10:30:00;;;;;;;2.40;1.60;;;;;;;;;;5062530;28;20842;-88
2022/07/14 10:32:26;;;;;;;4.63;2.23;;;;;;;;;;5045816;28;20635;-88
2022/07/14 10:35:10;;;;;;;2.87;1.30;;;;;;;;;;5043129;28;20433;-87
2022/07/14 10:37:45;;;;;;;1.80;1.70;;;;;;;;;;5033873;28;20448;-89
2022/07/14 10:40:23;;;;;;;1.80;1.80;;;;;;;;;;5032668;28;20410;-89
2022/07/14 10:42:52;;;;;;;4.13;2.83;;;;;;;;;;5032003;28;20433;-88
2022/07/14 10:45:18;;;;;;;5.07;2.10;;;;;;;;;;5052318;28;20954;-88
2022/07/14 10:47:49;;;;;;;2.40;1.30;;;;;;;;;;5033100;28;20557;-89
2022/07/14 10:50:28;;;;;;;1.40;1.30;;;;;;;;;;5040995;28;20435;-87
2022/07/14 10:52:54;;;;;;;1.50;1.27;;;;;;;;;;5052467;28;20475;-88
2022/07/14 10:55:23;;;;;;;3.07;1.93;;;;;;;;;;5037584;28;20429;-88
2022/07/14 10:58:06;;;;;;;1.47;1.37;;;;;;;;;;5042411;28;20469;-87
2022/07/14 11:00:44;;;;;;;1.37;1.37;;;;;;;;;;4701413;28;10000510;-88
2022/07/14 11:03:46;;;;;;;1.70;1.30;;;;;;;;;;5037616;28;20195;-89
2022/07/14 11:06:14;;;;;;;1.30;1.23;;;;;;;;;;5033733;28;20446;-87
2022/07/14 11:08:41;;;;;;;1.10;1.10;;;;;;;;;;5053617;28;20405;-89
2022/07/14 11:11:21;;;;;;;2.17;1.97;;;;;;;;;;5078962;22;20481;-88
2022/07/14 11:14:02;;;;;;;2.43;2.20;;;;;;;;;;5044931;28;20434;-90
2022/07/14 11:16:47;;;;;;;1.70;1.30;;;;;;;;;;5036175;28;20508;-90
2022/07/14 11:19:50;;;;;;;1.80;1.70;;;;;;;;;;5105408;23;20488;-88
2022/07/14 11:22:22;;;;;;;1.70;1.67;;;;;;;;;;5079839;28;20444;-87
2022/07/14 11:24:58;;;;;;;1.50;1.40;;;;;;;;;;5157103;22;20497;-88
2022/07/14 11:27:38;;;;;;;1.83;1.63;;;;;;;;;;5072832;28;20536;-88
2022/07/14 11:30:27;;;;;;;2.70;2.00;;;;;;;;;;5075715;28;20468;-89
2022/07/14 11:33:04;;;;;;;1.27;1.27;;;;;;;;;;5080638;28;20449;-89
2022/07/14 11:39:16;;;;;;;1.90;1.80;;;;;;;;;;5036934;28;20510;-86
2022/07/14 11:42:06;;;;;;;1.80;1.50;;;;;;;;;;5029515;28;20442;-89
2022/07/14 11:44:36;;;;;;;1.77;1.70;;;;;;;;;;5050225;28;20437;-89
2022/07/14 11:47:03;;;;;;;1.67;1.67;;;;;;;;;;5078056;28;21012;-87
2022/07/14 11:49:30;;;;;;;1.73;1.60;;;;;;;;;;5076830;28;20437;-89
2022/07/14 11:51:56;;;;;;;2.50;2.50;;;;;;;;;;5073517;28;20487;-89
2022/07/14 11:54:23;;;;;;;1.43;1.43;;;;;;;;;;5075038;28;20858;-89
2022/07/14 11:57:01;;;;;;;2.17;1.33;;;;;;;;;;5071397;28;20524;-89
2022/07/14 11:59:28;;;;;;;2.90;1.70;;;;;;;;;;5063773;28;20441;-90
2022/07/14 12:02:07;;;;;;;1.97;1.70;;;;;;;;;;5058133;28;20701;-89
2022/07/14 12:04:36;;;;;;;2.03;1.60;;;;;;;;;;5060462;28;20529;-89
2022/07/14 12:07:02;;;;;;;2.23;1.43;;;;;;;;;;5057254;28;20456;-88
2022/07/14 12:09:35;;;;;;;1.70;1.60;;;;;;;;;;5057741;28;20452;-88
2022/07/14 12:12:37;;;;;;;;;;;;;;;;;;;;;
2022/07/14 12:15:04;;;;;;;1.60;1.50;;;;;;;;;;5048657;28;20442;-88
2022/07/14 12:17:30;;;;;;;1.57;1.50;;;;;;;;;;5053859;28;20433;-85
2022/07/14 12:19:56;;;;;;;1.60;1.50;;;;;;;;;;5082872;28;20441;-89
2022/07/14 12:22:23;;;;;;;3.20;2.13;;;;;;;;;;5065688;28;20445;-88
2022/07/14 12:24:49;;;;;;;3.67;1.77;;;;;;;;;;5062484;28;20441;-88
2022/07/14 12:27:15;;;;;;;1.60;1.60;;;;;;;;;;5081614;28;20429;-90
2022/07/14 12:29:49;;;;;;;2.30;2.10;;;;;;;;;;5082307;28;20414;-90
2022/07/14 12:32:16;;;;;;;3.47;3.23;;;;;;;;;;5058074;28;20559;-88
2022/07/14 12:34:43;;;;;;;4.37;1.90;;;;;;;;;;5066295;28;20463;-91
2022/07/14 12:37:10;;;;;;;1.60;1.60;;;;;;;;;;5062572;28;20437;-88
2022/07/14 12:39:36;;;;;;;4.20;2.03;;;;;;;;;;5047815;28;20410;-89
2022/07/14 12:42:04;;;;;;;1.87;1.80;;;;;;;;;;5058423;28;20496;-90
2022/07/14 12:44:33;;;;;;;2.67;2.50;;;;;;;;;;5081095;28;20472;-95
2022/07/14 12:47:10;;;;;;;3.67;1.77;;;;;;;;;;5083530;28;20532;-90
2022/07/14 12:49:44;;;;;;;2.60;2.00;;;;;;;;;;5084655;28;20421;-94
2022/07/14 12:52:14;;;;;;;1.55;1.52;;;;;;;;;;4848559;28;10000369;-93
2022/07/14 12:54:40;;;;;;;1.57;1.37;;;;;;;;;;5048732;28;20399;-88
2022/07/14 12:57:07;;;;;;;2.20;2.00;;;;;;;;;;5054557;28;20426;-90
2022/07/14 12:59:34;;;;;;;1.90;1.80;;;;;;;;;;5044865;28;20397;-89
2022/07/14 13:02:01;;;;;;;3.43;1.90;;;;;;;;;;5052761;28;20931;-87
2022/07/14 13:04:37;;;;;;;2.50;2.33;;;;;;;;;;4700783;28;10000236;-90
2022/07/14 13:07:22;;;;;;;2.13;1.90;;;;;;;;;;5054675;28;20443;-89
2022/07/14 13:10:26;;;;;;;2.40;1.80;;;;;;;;;;5055423;28;20430;-90
2022/07/14 13:12:56;;;;;;;2.03;1.93;;;;;;;;;;4978287;28;20447;-91
2022/07/14 13:15:29;;;;;;;2.80;2.47;;;;;;;;;;5034333;28;20430;-91
2022/07/14 13:17:59;;;;;;;1.70;1.70;;;;;;;;;;5043154;28;20434;-91
2022/07/14 13:20:44;;;;;;;4.17;2.20;;;;;;;;;;5055740;28;20426;-90
2022/07/14 13:23:19;;;;;;;1.70;1.60;;;;;;;;;;5046726;28;20433;-90
2022/07/14 13:25:45;;;;;;;2.13;2.03;;;;;;;;;;5071487;28;20485;-90
2022/07/14 13:28:12;;;;;;;2.37;2.17;;;;;;;;;;5042503;28;21063;-89
2022/07/14 13:30:38;;;;;;;3.30;1.90;;;;;;;;;;5053933;28;20483;-91
2022/07/14 13:33:04;;;;;;;2.67;1.73;;;;;;;;;;5046383;28;20461;-90
2022/07/14 13:35:30;;;;;;;3.60;2.07;;;;;;;;;;5053989;28;21029;-90
2022/07/14 13:37:56;;;;;;;5.33;2.13;;;;;;;;;;5052358;28;20434;-90
2022/07/14 13:40:22;;;;;;;3.00;2.00;;;;;;;;;;5051017;28;21017;-87
2022/07/14 13:42:48;;;;;;;2.23;2.00;;;;;;;;;;5041149;28;20448;-90
2022/07/14 13:45:14;;;;;;;3.00;2.17;;;;;;;;;;5040009;28;20434;-91
2022/07/14 13:47:40;;;;;;;2.77;2.67;;;;;;;;;;5052728;28;20442;-91
2022/07/14 13:52:51;;;;;;;1.90;1.80;;;;;;;;;;5042600;28;20780;-90
2022/07/14 13:55:17;;;;;;;2.40;1.53;;;;;;;;;;4699825;28;10000238;-89
2022/07/14 13:57:43;;;;;;;2.77;1.97;;;;;;;;;;5050770;28;20190;-89
2022/07/14 14:00:25;;;;;;;1.87;1.77;;;;;;;;;;5052479;28;20437;-90
2022/07/14 14:05:36;;;;;;;1.77;1.77;;;;;;;;;;5053644;28;20413;-90
2022/07/14 14:08:03;;;;;;;1.97;1.87;;;;;;;;;;5050083;28;20447;-93
2022/07/14 14:10:55;;;;;;;1.70;1.57;;;;;;;;;;5057803;28;20485;-91
2022/07/14 14:13:28;;;;;;;2.30;2.10;;;;;;;;;;5060011;28;20454;-93
2022/07/14 14:15:57;;;;;;;2.83;1.60;;;;;;;;;;5060790;28;20505;-89
2022/07/14 14:18:36;;;;;;;;;;;;;;;;;;;;;
2022/07/14 14:23:57;;;;;;;3.37;1.73;;;;;;;;;;5207077;23;20487;-85
2022/07/14 14:26:42;;;;;;;1.97;1.87;;;;;;;;;;5182177;22;20497;-87
2022/07/14 14:29:10;;;;;;;1.60;1.50;;;;;;;;;;5389547;22;20469;-88
2022/07/14 14:31:38;;;;;;;2.63;2.50;;;;;;;;;;5051092;28;21021;-90
2022/07/14 14:34:13;;;;;;;2.33;2.07;;;;;;;;;;5037043;28;20430;-90
2022/07/14 14:56:05;;;;;;;1.90;1.90;;;;;;;;;;5007662;28;20603;-90
2022/07/14 15:01:08;;;;;;;1.80;1.67;;;;;;;;;;5050985;28;20537;-87
2022/07/14 15:03:34;;;;;;;1.63;1.53;;;;;;;;;;5013966;28;20478;-87
2022/07/14 15:06:01;;;;;;;2.93;2.27;;;;;;;;;;4990034;28;20440;-91
2022/07/14 15:08:27;;;;;;;2.60;1.87;;;;;;;;;;5011526;28;20461;-86
2022/07/14 15:11:02;;;;;;;5.17;2.10;;;;;;;;;;4991857;28;20456;-90
2022/07/14 15:13:28;;;;;;;1.83;1.73;;;;;;;;;;5023022;28;20435;-91
2022/07/14 15:16:02;;;;;;;1.63;1.50;;;;;;;;;;5026235;28;20428;-89
2022/07/14 15:21:03;;;;;;;3.20;1.90;;;;;;;;;;5155383;22;20541;-89
2022/07/14 15:26:35;;;;;;;2.33;2.20;;;;;;;;;;5017218;28;20428;-90
2022/07/14 15:29:02;;;;;;;3.00;2.70;;;;;;;;;;5049744;28;20426;-90
2022/07/14 15:31:30;;;;;;;2.73;2.30;;;;;;;;;;5035954;28;20473;-89
2022/07/14 15:33:56;;;;;;;2.10;2.00;;;;;;;;;;5049559;28;20509;-87
2022/07/14 15:36:30;;;;;;;3.50;1.80;;;;;;;;;;5024592;28;20462;-89
2022/07/14 15:41:51;;;;;;;6.70;4.20;;;;;;;;;;5074195;28;20447;-88
2022/07/14 16:05:16;;;;;;;2.10;2.00;;;;;;;;;;5077008;23;10002039;-87
2022/07/14 16:07:46;;;;;;;1.83;1.73;;;;;;;;;;5025402;28;20197;-89
2022/07/14 16:10:15;;;;;;;2.10;2.00;;;;;;;;;;4999648;28;20780;-91
2022/07/14 16:12:42;;;;;;;3.90;3.70;;;;;;;;;;5009986;28;20475;-88
2022/07/14 16:15:17;;;;;;;2.40;1.63;;;;;;;;;;5025290;28;20753;-92
2022/07/14 16:18:06;;;;;;;2.30;2.00;;;;;;;;;;5013434;28;20532;-90
2022/07/14 16:20:33;;;;;;;2.83;2.57;;;;;;;;;;5014782;28;20495;-90
2022/07/14 16:23:00;;;;;;;2.17;2.10;;;;;;;;;;5010708;28;20414;-89
2022/07/14 16:25:33;;;;;;;1.90;1.90;;;;;;;;;;5022659;28;20537;-92
2022/07/14 16:28:40;;;;;;;2.37;1.97;;;;;;;;;;5030570;28;20423;-91
2022/07/14 16:31:14;;;;;;;2.50;2.40;;;;;;;;;;5014437;28;20470;-92
2022/07/14 16:33:40;;;;;;;2.13;2.13;;;;;;;;;;5014132;28;20523;-88
2022/07/14 16:36:08;;;;;;;2.20;2.10;;;;;;;;;;5034512;28;20521;-89
2022/07/14 16:38:34;;;;;;;2.40;2.30;;;;;;;;;;5008544;28;20466;-92
2022/07/14 16:41:03;;;;;;;2.63;2.13;;;;;;;;;;5017556;28;20510;-88
2022/07/14 16:43:31;;;;;;;2.00;1.90;;;;;;;;;;5017066;28;20458;-92
2022/07/14 16:45:58;;;;;;;2.47;2.37;;;;;;;;;;5025164;28;20426;-90
2022/07/14 16:48:24;;;;;;;2.43;2.33;;;;;;;;;;5019335;28;20431;-90
2022/07/14 16:50:50;;;;;;;3.70;3.50;;;;;;;;;;5023491;28;20492;-89
2022/07/14 16:53:16;;;;;;;2.73;2.37;;;;;;;;;;5006007;28;20458;-91
2022/07/14 16:55:43;;;;;;;2.40;2.20;;;;;;;;;;5018112;28;20430;-93
2022/07/14 16:58:11;;;;;;;2.60;2.60;;;;;;;;;;5018061;28;20975;-92
2022/07/14 17:00:40;;;;;;;3.20;2.40;;;;;;;;;;5022025;28;20433;-90
2022/07/14 17:03:09;;;;;;;3.23;2.23;;;;;;;;;;5036533;28;20454;-92
2022/07/14 17:08:26;;;;;;;5.37;2.20;;;;;;;;;;5040293;28;20808;-92
2022/07/14 17:11:02;;;;;;;2.10;2.00;;;;;;;;;;5040291;28;20470;-93
2022/07/14 17:13:35;;;;;;;3.90;3.63;;;;;;;;;;5026322;28;20442;-92
2022/07/14 17:16:01;;;;;;;1.90;1.90;;;;;;;;;;5008804;28;20455;-87
2022/07/14 17:18:30;;;;;;;2.30;2.30;;;;;;;;;;5017026;28;20455;-91
2022/07/14 17:20:56;;;;;;;2.37;2.27;;;;;;;;;;5026658;28;20458;-92
2022/07/14 17:23:59;;;;;;;;;;;;;;;;;;;;;
2022/07/14 17:26:29;;;;;;;3.73;2.53;;;;;;;;;;5023338;28;20482;-88
2022/07/14 17:28:55;;;;;;;2.70;2.60;;;;;;;;;;5027943;28;20439;-91
2022/07/14 17:31:41;;;;;;;3.77;2.20;;;;;;;;;;5025863;28;20466;-92